sensor_id;sensor_type;location;lat;lon;timestamp;pressure;altitude;pressure_sealevel;temperature;humidity
9277;BME280;4676;42.678;23.244;2024-02-21T00:01:05;94718.88;;;5.69;100.00
9277;BME280;4676;42.678;23.244;2024-02-21T00:03:32;94712.19;;;5.68;100.00
9277;BME280;4676;42.678;23.244;2024-02-21T00:06:00;94718.09;;;5.66;100.00
9277;BME280;4676;42.678;23.244;2024-02-21T00:08:27;94715.59;;;5.63;100.00
9277;BME280;4676;42.678;23.244;2024-02-21T00:10:53;94715.63;;;5.60;100.00
9277;BME280;4676;42.678;23.244;2024-02-21T00:13:20;94717.22;;;5.68;100.00
9277;BME280;4676;42.678;23.244;2024-02-21T00:15:47;94714.47;;;5.85;100.00
9277;BME280;4676;42.678;23.244;2024-02-21T00:18:13;94711.22;;;5.78;100.00
9277;BME280;4676;42.678;23.244;2024-02-21T00:20:40;94708.06;;;5.60;100.00
9277;BME280;4676;42.678;23.244;2024-02-21T00:23:08;94699.56;;;5.73;100.00
9277;BME280;4676;42.678;23.244;2024-02-21T00:25:35;94712.88;;;5.79;100.00
9277;BME280;4676;42.678;23.244;2024-02-21T00:28:01;94708.75;;;5.74;100.00
9277;BME280;4676;42.678;23.244;2024-02-21T00:30:28;94710.47;;;5.70;100.00
9277;BME280;4676;42.678;23.244;2024-02-21T00:32:55;94707.09;;;5.73;100.00
9277;BME280;4676;42.678;23.244;2024-02-21T00:35:22;94693.91;;;5.52;100.00
9277;BME280;4676;42.678;23.244;2024-02-21T00:37:48;94707.19;;;5.65;100.00
9277;BME280;4676;42.678;23.244;2024-02-21T00:40:16;94703.03;;;5.60;100.00
9277;BME280;4676;42.678;23.244;2024-02-21T00:42:45;94701.41;;;5.57;100.00
9277;BME280;4676;42.678;23.244;2024-02-21T00:45:12;94695.44;;;5.66;100.00
9277;BME280;4676;42.678;23.244;2024-02-21T00:47:38;94700.41;;;5.73;100.00
9277;BME280;4676;42.678;23.244;2024-02-21T00:50:06;94699.59;;;5.70;100.00
9277;BME280;4676;42.678;23.244;2024-02-21T00:52:34;94679.56;;;5.62;100.00
9277;BME280;4676;42.678;23.244;2024-02-21T00:55:01;94677.16;;;5.53;100.00
9277;BME280;4676;42.678;23.244;2024-02-21T00:57:29;94691.22;;;5.69;100.00
9277;BME280;4676;42.678;23.244;2024-02-21T00:59:57;94677.84;;;5.64;100.00
9277;BME280;4676;42.678;23.244;2024-02-21T01:02:24;94681.25;;;5.62;100.00
9277;BME280;4676;42.678;23.244;2024-02-21T01:04:50;94677.78;;;5.70;100.00
9277;BME280;4676;42.678;23.244;2024-02-21T01:07:17;94667.84;;;5.63;100.00
9277;BME280;4676;42.678;23.244;2024-02-21T01:09:44;94676.19;;;5.63;100.00
9277;BME280;4676;42.678;23.244;2024-02-21T01:12:10;94677.09;;;5.58;100.00
9277;BME280;4676;42.678;23.244;2024-02-21T01:14:39;94665.31;;;5.61;100.00
9277;BME280;4676;42.678;23.244;2024-02-21T01:17:05;94666.25;;;5.56;100.00
9277;BME280;4676;42.678;23.244;2024-02-21T01:19:32;94672.88;;;5.63;100.00
9277;BME280;4676;42.678;23.244;2024-02-21T01:21:59;94671.16;;;5.65;100.00
9277;BME280;4676;42.678;23.244;2024-02-21T01:24:26;94669.44;;;5.70;100.00
9277;BME280;4676;42.678;23.244;2024-02-21T01:26:52;94672.75;;;5.70;100.00
9277;BME280;4676;42.678;23.244;2024-02-21T01:29:19;94672.69;;;5.76;100.00
9277;BME280;4676;42.678;23.244;2024-02-21T01:31:47;94636.84;;;5.62;100.00
9277;BME280;4676;42.678;23.244;2024-02-21T01:34:14;94670.09;;;5.81;100.00
9277;BME280;4676;42.678;23.244;2024-02-21T01:36:40;94650.03;;;5.79;100.00
9277;BME280;4676;42.678;23.244;2024-02-21T01:39:07;94660.91;;;5.80;100.00
9277;BME280;4676;42.678;23.244;2024-02-21T01:41:34;94661.75;;;5.77;100.00
9277;BME280;4676;42.678;23.244;2024-02-21T01:44:01;94647.50;;;5.79;100.00
9277;BME280;4676;42.678;23.244;2024-02-21T01:46:28;94654.19;;;5.80;100.00
9277;BME280;4676;42.678;23.244;2024-02-21T01:48:57;94603.53;;;5.45;100.00
9277;BME280;4676;42.678;23.244;2024-02-21T01:51:24;94648.25;;;5.84;100.00
9277;BME280;4676;42.678;23.244;2024-02-21T01:53:51;94651.69;;;5.77;100.00
9277;BME280;4676;42.678;23.244;2024-02-21T01:56:19;94645.91;;;5.71;100.00
9277;BME280;4676;42.678;23.244;2024-02-21T01:58:47;94647.53;;;5.76;100.00
9277;BME280;4676;42.678;23.244;2024-02-21T02:01:15;94645.97;;;5.68;100.00
9277;BME280;4676;42.678;23.244;2024-02-21T02:03:45;94639.22;;;5.71;100.00
9277;BME280;4676;42.678;23.244;2024-02-21T02:06:13;94645.06;;;5.73;100.00
9277;BME280;4676;42.678;23.244;2024-02-21T02:08:41;94650.91;;;5.74;100.00
9277;BME280;4676;42.678;23.244;2024-02-21T02:11:08;94653.53;;;5.66;100.00
9277;BME280;4676;42.678;23.244;2024-02-21T02:13:35;94651.69;;;5.79;100.00
9277;BME280;4676;42.678;23.244;2024-02-21T02:16:02;94646.66;;;5.79;100.00
9277;BME280;4676;42.678;23.244;2024-02-21T02:18:29;94644.25;;;5.71;100.00
9277;BME280;4676;42.678;23.244;2024-02-21T02:20:55;94643.34;;;5.75;100.00
9277;BME280;4676;42.678;23.244;2024-02-21T02:23:25;94638.34;;;5.74;100.00
9277;BME280;4676;42.678;23.244;2024-02-21T02:25:52;94581.63;;;5.54;100.00
9277;BME280;4676;42.678;23.244;2024-02-21T02:28:19;94635.81;;;5.75;100.00
9277;BME280;4676;42.678;23.244;2024-02-21T02:30:47;94634.94;;;5.79;100.00
9277;BME280;4676;42.678;23.244;2024-02-21T02:33:13;94630.09;;;5.64;100.00
9277;BME280;4676;42.678;23.244;2024-02-21T02:35:42;94627.53;;;5.69;100.00
9277;BME280;4676;42.678;23.244;2024-02-21T02:38:09;94625.00;;;5.67;100.00
9277;BME280;4676;42.678;23.244;2024-02-21T02:40:38;94630.88;;;5.69;100.00
9277;BME280;4676;42.678;23.244;2024-02-21T02:43:05;94626.72;;;5.65;100.00
9277;BME280;4676;42.678;23.244;2024-02-21T02:45:32;94610.00;;;5.63;100.00
9277;BME280;4676;42.678;23.244;2024-02-21T02:47:59;94624.13;;;5.73;100.00
9277;BME280;4676;42.678;23.244;2024-02-21T02:50:27;94629.22;;;5.67;100.00
9277;BME280;4676;42.678;23.244;2024-02-21T02:52:54;94602.53;;;5.58;100.00
9277;BME280;4676;42.678;23.244;2024-02-21T02:55:21;94640.00;;;5.76;100.00
9277;BME280;4676;42.678;23.244;2024-02-21T02:57:50;94635.81;;;5.74;100.00
9277;BME280;4676;42.678;23.244;2024-02-21T03:00:17;94613.47;;;5.54;100.00
9277;BME280;4676;42.678;23.244;2024-02-21T03:02:46;94634.38;;;5.58;100.00
9277;BME280;4676;42.678;23.244;2024-02-21T03:05:15;94630.91;;;5.65;100.00
9277;BME280;4676;42.678;23.244;2024-02-21T03:07:42;94626.75;;;5.64;100.00
9277;BME280;4676;42.678;23.244;2024-02-21T03:10:10;94631.84;;;5.59;100.00
9277;BME280;4676;42.678;23.244;2024-02-21T03:12:36;94640.34;;;5.47;100.00
9277;BME280;4676;42.678;23.244;2024-02-21T03:15:06;94638.69;;;5.46;100.00
9277;BME280;4676;42.678;23.244;2024-02-21T03:17:32;94643.78;;;5.40;100.00
9277;BME280;4676;42.678;23.244;2024-02-21T03:20:00;94640.44;;;5.40;100.00
9277;BME280;4676;42.678;23.244;2024-02-21T03:22:30;94637.94;;;5.41;100.00
9277;BME280;4676;42.678;23.244;2024-02-21T03:24:57;94623.72;;;5.36;100.00
9277;BME280;4676;42.678;23.244;2024-02-21T03:27:24;94643.72;;;5.48;100.00
9277;BME280;4676;42.678;23.244;2024-02-21T03:29:50;94646.94;;;5.59;100.00
9277;BME280;4676;42.678;23.244;2024-02-21T04:03:08;94657.00;;;5.56;100.00
9277;BME280;4676;42.678;23.244;2024-02-21T04:05:35;94655.41;;;5.52;100.00
9277;BME280;4676;42.678;23.244;2024-02-21T04:08:04;94652.03;;;5.50;100.00
9277;BME280;4676;42.678;23.244;2024-02-21T04:10:30;94659.47;;;5.62;100.00
9277;BME280;4676;42.678;23.244;2024-02-21T04:12:57;94656.19;;;5.56;100.00
9277;BME280;4676;42.678;23.244;2024-02-21T04:15:24;94651.16;;;5.56;100.00
9277;BME280;4676;42.678;23.244;2024-02-21T04:17:51;94661.22;;;5.52;100.00
9277;BME280;4676;42.678;23.244;2024-02-21T04:20:19;94655.41;;;5.49;100.00
9277;BME280;4676;42.678;23.244;2024-02-21T04:22:46;94631.34;;;5.28;100.00
9277;BME280;4676;42.678;23.244;2024-02-21T04:25:13;94647.84;;;5.50;100.00
9277;BME280;4676;42.678;23.244;2024-02-21T04:27:39;94654.47;;;5.58;100.00
9277;BME280;4676;42.678;23.244;2024-02-21T04:30:07;94650.38;;;5.52;100.00
9277;BME280;4676;42.678;23.244;2024-02-21T04:32:35;94621.38;;;5.22;100.00
9277;BME280;4676;42.678;23.244;2024-02-21T04:35:01;94634.75;;;5.24;100.00
9277;BME280;4676;42.678;23.244;2024-02-21T04:37:29;94642.31;;;5.21;100.00
9277;BME280;4676;42.678;23.244;2024-02-21T04:39:56;94643.84;;;5.36;100.00
9277;BME280;4676;42.678;23.244;2024-02-21T04:42:23;94651.41;;;5.31;100.00
9277;BME280;4676;42.678;23.244;2024-02-21T04:44:50;94657.31;;;5.30;100.00
9277;BME280;4676;42.678;23.244;2024-02-21T04:47:16;94659.06;;;5.24;100.00
9277;BME280;4676;42.678;23.244;2024-02-21T04:49:44;94648.25;;;5.17;100.00
9277;BME280;4676;42.678;23.244;2024-02-21T04:52:11;94663.34;;;5.14;100.00
9277;BME280;4676;42.678;23.244;2024-02-21T04:54:39;94659.19;;;5.12;100.00
9277;BME280;4676;42.678;23.244;2024-02-21T04:57:06;94661.00;;;4.99;100.00
9277;BME280;4676;42.678;23.244;2024-02-21T04:59:35;94655.31;;;4.79;100.00
9277;BME280;4676;42.678;23.244;2024-02-21T05:02:02;94647.78;;;4.80;100.00
9277;BME280;4676;42.678;23.244;2024-02-21T05:04:29;94658.63;;;4.84;100.00
9277;BME280;4676;42.678;23.244;2024-02-21T05:06:56;94658.69;;;4.78;100.00
9277;BME280;4676;42.678;23.244;2024-02-21T05:09:22;94666.38;;;4.60;100.00
9277;BME280;4676;42.678;23.244;2024-02-21T05:11:50;94665.59;;;4.47;100.00
9277;BME280;4676;42.678;23.244;2024-02-21T05:14:17;94668.09;;;4.51;100.00
9277;BME280;4676;42.678;23.244;2024-02-21T05:16:44;94665.63;;;4.50;100.00
9277;BME280;4676;42.678;23.244;2024-02-21T05:19:10;94661.38;;;4.55;100.00
9277;BME280;4676;42.678;23.244;2024-02-21T05:21:37;94674.63;;;4.69;100.00
9277;BME280;4676;42.678;23.244;2024-02-21T05:24:05;94673.00;;;4.65;100.00
9277;BME280;4676;42.678;23.244;2024-02-21T05:26:32;94675.44;;;4.73;100.00
9277;BME280;4676;42.678;23.244;2024-02-21T05:29:00;94675.41;;;4.76;100.00
9277;BME280;4676;42.678;23.244;2024-02-21T05:31:43;94669.38;;;4.96;100.00
9277;BME280;4676;42.678;23.244;2024-02-21T05:34:21;94655.19;;;4.92;100.00
9277;BME280;4676;42.678;23.244;2024-02-21T05:36:48;94666.88;;;4.95;100.00
9277;BME280;4676;42.678;23.244;2024-02-21T05:39:15;94664.28;;;5.06;100.00
9277;BME280;4676;42.678;23.244;2024-02-21T05:41:42;94671.69;;;5.16;100.00
9277;BME280;4676;42.678;23.244;2024-02-21T05:44:10;94670.00;;;5.20;100.00
9277;BME280;4676;42.678;23.244;2024-02-21T05:46:37;94669.97;;;5.23;100.00
9277;BME280;4676;42.678;23.244;2024-02-21T05:49:03;94673.19;;;5.34;100.00
9277;BME280;4676;42.678;23.244;2024-02-21T05:51:32;94678.22;;;5.32;100.00
9277;BME280;4676;42.678;23.244;2024-02-21T05:53:59;94672.25;;;5.42;100.00
9277;BME280;4676;42.678;23.244;2024-02-21T05:56:26;94685.56;;;5.50;100.00
9277;BME280;4676;42.678;23.244;2024-02-21T05:58:52;94688.91;;;5.51;100.00
9277;BME280;4676;42.678;23.244;2024-02-21T06:01:20;94703.00;;;5.64;100.00
9277;BME280;4676;42.678;23.244;2024-02-21T06:03:47;94692.84;;;5.73;100.00
9277;BME280;4676;42.678;23.244;2024-02-21T06:06:14;94681.13;;;5.72;100.00
9277;BME280;4676;42.678;23.244;2024-02-21T06:08:40;94693.53;;;5.84;100.00
9277;BME280;4676;42.678;23.244;2024-02-21T06:11:07;94700.97;;;5.98;100.00
9277;BME280;4676;42.678;23.244;2024-02-21T06:13:38;94705.81;;;6.10;100.00
9277;BME280;4676;42.678;23.244;2024-02-21T06:16:06;94704.09;;;6.14;100.00
9277;BME280;4676;42.678;23.244;2024-02-21T06:18:35;94712.47;;;6.13;100.00
9277;BME280;4676;42.678;23.244;2024-02-21T06:21:03;94713.25;;;6.19;100.00
9277;BME280;4676;42.678;23.244;2024-02-21T06:23:30;94710.59;;;6.28;100.00
9277;BME280;4676;42.678;23.244;2024-02-21T06:25:56;94681.59;;;6.03;100.00
9277;BME280;4676;42.678;23.244;2024-02-21T06:28:23;94712.28;;;6.28;100.00
9277;BME280;4676;42.678;23.244;2024-02-21T06:30:50;94721.41;;;6.36;100.00
9277;BME280;4676;42.678;23.244;2024-02-21T06:33:16;94718.75;;;6.45;100.00
9277;BME280;4676;42.678;23.244;2024-02-21T06:35:45;94723.00;;;6.43;100.00
9277;BME280;4676;42.678;23.244;2024-02-21T06:38:12;94725.41;;;6.48;100.00
9277;BME280;4676;42.678;23.244;2024-02-21T06:40:39;94726.16;;;6.54;100.00
9277;BME280;4676;42.678;23.244;2024-02-21T06:43:06;94723.47;;;6.65;100.00
9277;BME280;4676;42.678;23.244;2024-02-21T06:45:32;94727.72;;;6.63;100.00
9277;BME280;4676;42.678;23.244;2024-02-21T06:47:59;94734.28;;;6.75;100.00
9277;BME280;4676;42.678;23.244;2024-02-21T06:50:26;94735.13;;;6.74;100.00
9277;BME280;4676;42.678;23.244;2024-02-21T06:52:54;94735.13;;;6.75;100.00
9277;BME280;4676;42.678;23.244;2024-02-21T06:55:20;94737.53;;;6.80;100.00
9277;BME280;4676;42.678;23.244;2024-02-21T06:57:47;94739.19;;;6.82;100.00
9277;BME280;4676;42.678;23.244;2024-02-21T07:00:15;94694.19;;;6.61;100.00
9277;BME280;4676;42.678;23.244;2024-02-21T07:02:42;94737.38;;;6.90;100.00
9277;BME280;4676;42.678;23.244;2024-02-21T07:05:09;94743.13;;;6.97;100.00
9277;BME280;4676;42.678;23.244;2024-02-21T07:07:36;94740.59;;;7.00;100.00
9277;BME280;4676;42.678;23.244;2024-02-21T07:10:05;94753.03;;;7.08;100.00
9277;BME280;4676;42.678;23.244;2024-02-21T07:12:33;94743.03;;;7.04;100.00
9277;BME280;4676;42.678;23.244;2024-02-21T07:15:01;94731.41;;;6.96;100.00
9277;BME280;4676;42.678;23.244;2024-02-21T07:17:27;94738.16;;;6.94;100.00
9277;BME280;4676;42.678;23.244;2024-02-21T07:19:54;94739.72;;;7.01;100.00
9277;BME280;4676;42.678;23.244;2024-02-21T07:22:22;94734.44;;;7.16;100.00
9277;BME280;4676;42.678;23.244;2024-02-21T07:24:49;94734.91;;;7.36;100.00
9277;BME280;4676;42.678;23.244;2024-02-21T07:27:17;94746.88;;;7.27;100.00
9277;BME280;4676;42.678;23.244;2024-02-21T07:29:43;94741.78;;;7.28;100.00
9277;BME280;4676;42.678;23.244;2024-02-21T07:32:12;94725.03;;;7.26;100.00
9277;BME280;4676;42.678;23.244;2024-02-21T07:34:39;94730.88;;;7.28;100.00
9277;BME280;4676;42.678;23.244;2024-02-21T07:37:06;94728.22;;;7.35;100.00
9277;BME280;4676;42.678;23.244;2024-02-21T07:39:36;94739.13;;;7.36;100.00
9277;BME280;4676;42.678;23.244;2024-02-21T07:42:03;94735.81;;;7.34;100.00
9277;BME280;4676;42.678;23.244;2024-02-21T07:44:31;94710.78;;;7.23;100.00
9277;BME280;4676;42.678;23.244;2024-02-21T07:46:59;94742.28;;;7.48;100.00
9277;BME280;4676;42.678;23.244;2024-02-21T07:49:26;94732.47;;;7.33;100.00
9277;BME280;4676;42.678;23.244;2024-02-21T07:51:53;94714.94;;;7.27;100.00
9277;BME280;4676;42.678;23.244;2024-02-21T07:54:19;94745.19;;;7.26;100.00
9277;BME280;4676;42.678;23.244;2024-02-21T07:56:46;94740.09;;;7.29;100.00
9277;BME280;4676;42.678;23.244;2024-02-21T07:59:13;94731.56;;;7.37;100.00
9277;BME280;4676;42.678;23.244;2024-02-21T08:01:42;94741.41;;;7.49;100.00
9277;BME280;4676;42.678;23.244;2024-02-21T08:04:10;94736.47;;;7.45;100.00
9277;BME280;4676;42.678;23.244;2024-02-21T08:06:36;94737.19;;;7.51;100.00
9277;BME280;4676;42.678;23.244;2024-02-21T08:09:03;94737.97;;;7.53;100.00
9277;BME280;4676;42.678;23.244;2024-02-21T08:11:30;94736.22;;;7.57;100.00
9277;BME280;4676;42.678;23.244;2024-02-21T08:13:56;94736.97;;;7.62;100.00
9277;BME280;4676;42.678;23.244;2024-02-21T08:16:23;94712.94;;;7.43;100.00
9277;BME280;4676;42.678;23.244;2024-02-21T08:18:52;94722.09;;;7.48;100.00
9277;BME280;4676;42.678;23.244;2024-02-21T08:21:19;94731.88;;;7.67;100.00
9277;BME280;4676;42.678;23.244;2024-02-21T08:23:45;94706.06;;;7.52;100.00
9277;BME280;4676;42.678;23.244;2024-02-21T08:26:16;94704.28;;;7.58;100.00
9277;BME280;4676;42.678;23.244;2024-02-21T08:28:44;94657.66;;;7.32;100.00
9277;BME280;4676;42.678;23.244;2024-02-21T08:31:18;94736.38;;;7.94;100.00
9277;BME280;4676;42.678;23.244;2024-02-21T08:33:45;94731.19;;;8.00;100.00
9277;BME280;4676;42.678;23.244;2024-02-21T08:36:18;94739.25;;;8.19;100.00
9277;BME280;4676;42.678;23.244;2024-02-21T08:38:45;94738.38;;;8.20;100.00
9277;BME280;4676;42.678;23.244;2024-02-21T08:41:12;94741.00;;;8.14;100.00
9277;BME280;4676;42.678;23.244;2024-02-21T08:43:39;94736.19;;;8.03;100.00
9277;BME280;4676;42.678;23.244;2024-02-21T08:46:05;94741.34;;;7.98;100.00
9277;BME280;4676;42.678;23.244;2024-02-21T08:48:32;94741.22;;;8.03;100.00
9277;BME280;4676;42.678;23.244;2024-02-21T08:50:58;94742.34;;;7.90;100.00
9277;BME280;4676;42.678;23.244;2024-02-21T08:53:27;94738.06;;;7.92;100.00
9277;BME280;4676;42.678;23.244;2024-02-21T08:55:54;94741.22;;;8.03;100.00
9277;BME280;4676;42.678;23.244;2024-02-21T08:58:20;94741.22;;;8.04;100.00
9277;BME280;4676;42.678;23.244;2024-02-21T09:00:48;94704.00;;;7.71;100.00
9277;BME280;4676;42.678;23.244;2024-02-21T09:03:16;94744.44;;;8.13;100.00
9277;BME280;4676;42.678;23.244;2024-02-21T09:05:45;94750.13;;;8.21;100.00
9277;BME280;4676;42.678;23.244;2024-02-21T09:08:12;94743.38;;;8.21;100.00
9277;BME280;4676;42.678;23.244;2024-02-21T09:10:40;94750.97;;;8.21;100.00
9277;BME280;4676;42.678;23.244;2024-02-21T09:13:07;94726.34;;;7.91;100.00
9277;BME280;4676;42.678;23.244;2024-02-21T09:15:34;94750.59;;;7.98;100.00
9277;BME280;4676;42.678;23.244;2024-02-21T09:18:01;94748.16;;;7.93;100.00
9277;BME280;4676;42.678;23.244;2024-02-21T09:20:28;94749.72;;;7.99;100.00
9277;BME280;4676;42.678;23.244;2024-02-21T09:22:54;94751.25;;;8.08;100.00
9277;BME280;4676;42.678;23.244;2024-02-21T09:25:21;94742.78;;;8.10;100.00
9277;BME280;4676;42.678;23.244;2024-02-21T09:27:49;94746.22;;;8.06;100.00
9277;BME280;4676;42.678;23.244;2024-02-21T09:30:17;94742.63;;;8.18;100.00
9277;BME280;4676;42.678;23.244;2024-02-21T09:32:44;94747.50;;;8.27;100.00
9277;BME280;4676;42.678;23.244;2024-02-21T09:35:11;94738.91;;;8.37;100.00
9277;BME280;4676;42.678;23.244;2024-02-21T09:37:38;94743.53;;;8.55;100.00
9277;BME280;4676;42.678;23.244;2024-02-21T09:40:06;94706.06;;;8.37;100.00
9277;BME280;4676;42.678;23.244;2024-02-21T09:42:37;94747.53;;;8.65;100.00
9277;BME280;4676;42.678;23.244;2024-02-21T09:45:08;94748.75;;;8.47;100.00
9277;BME280;4676;42.678;23.244;2024-02-21T09:47:43;94745.50;;;8.42;100.00
9277;BME280;4676;42.678;23.244;2024-02-21T09:50:14;94731.78;;;8.54;100.00
9277;BME280;4676;42.678;23.244;2024-02-21T09:52:41;94735.94;;;8.55;100.00
9277;BME280;4676;42.678;23.244;2024-02-21T09:55:10;94744.53;;;8.86;100.00
9277;BME280;4676;42.678;23.244;2024-02-21T09:57:39;94716.00;;;8.80;100.00
9277;BME280;4676;42.678;23.244;2024-02-21T10:00:08;94729.06;;;8.98;100.00
9277;BME280;4676;42.678;23.244;2024-02-21T10:02:35;94733.34;;;9.30;100.00
9277;BME280;4676;42.678;23.244;2024-02-21T10:05:02;94740.69;;;9.72;94.70
9277;BME280;4676;42.678;23.244;2024-02-21T10:07:30;94742.78;;;9.88;94.36
9277;BME280;4676;42.678;23.244;2024-02-21T10:10:01;94737.28;;;9.73;92.31
9277;BME280;4676;42.678;23.244;2024-02-21T10:12:28;94736.56;;;9.68;91.91
9277;BME280;4676;42.678;23.244;2024-02-21T10:15:00;94728.16;;;9.35;93.37
9277;BME280;4676;42.678;23.244;2024-02-21T10:17:28;94680.94;;;9.01;93.23
9277;BME280;4676;42.678;23.244;2024-02-21T10:19:55;94713.38;;;9.20;93.55
9277;BME280;4676;42.678;23.244;2024-02-21T10:22:22;94724.53;;;9.45;96.55
9277;BME280;4676;42.678;23.244;2024-02-21T10:24:50;94718.94;;;9.65;94.03
9277;BME280;4676;42.678;23.244;2024-02-21T10:27:23;94723.88;;;9.69;92.63
9277;BME280;4676;42.678;23.244;2024-02-21T10:29:50;94714.44;;;9.76;91.56
9277;BME280;4676;42.678;23.244;2024-02-21T10:32:17;94712.72;;;9.76;88.99
9277;BME280;4676;42.678;23.244;2024-02-21T10:34:45;94707.59;;;9.79;88.51
9277;BME280;4676;42.678;23.244;2024-02-21T10:37:17;94695.63;;;9.84;86.67
9277;BME280;4676;42.678;23.244;2024-02-21T10:39:43;94690.81;;;10.06;88.16
9277;BME280;4676;42.678;23.244;2024-02-21T10:42:11;94678.78;;;10.42;89.83
9277;BME280;4676;42.678;23.244;2024-02-21T10:44:39;94678.22;;;10.60;81.91
9277;BME280;4676;42.678;23.244;2024-02-21T10:47:08;94660.94;;;10.73;75.38
9277;BME280;4676;42.678;23.244;2024-02-21T10:49:39;94660.88;;;10.74;71.02
9277;BME280;4676;42.678;23.244;2024-02-21T10:52:14;94637.47;;;10.40;69.69
9277;BME280;4676;42.678;23.244;2024-02-21T10:54:44;94663.88;;;10.33;68.64
9277;BME280;4676;42.678;23.244;2024-02-21T10:57:13;94670.19;;;10.20;70.47
9277;BME280;4676;42.678;23.244;2024-02-21T10:59:40;94639.91;;;10.15;71.07
9277;BME280;4676;42.678;23.244;2024-02-21T11:02:07;94642.09;;;10.27;72.72
9277;BME280;4676;42.678;23.244;2024-02-21T11:04:35;94649.84;;;10.49;74.73
9277;BME280;4676;42.678;23.244;2024-02-21T11:07:03;94653.09;;;10.54;71.43
9277;BME280;4676;42.678;23.244;2024-02-21T11:09:32;94637.94;;;10.79;71.04
9277;BME280;4676;42.678;23.244;2024-02-21T11:12:01;94618.16;;;10.88;67.40
9277;BME280;4676;42.678;23.244;2024-02-21T11:14:29;94646.50;;;11.01;65.54
9277;BME280;4676;42.678;23.244;2024-02-21T11:16:58;94620.81;;;10.85;66.46
9277;BME280;4676;42.678;23.244;2024-02-21T11:19:26;94627.72;;;10.80;62.92
9277;BME280;4676;42.678;23.244;2024-02-21T11:21:54;94640.38;;;10.82;62.68
9277;BME280;4676;42.678;23.244;2024-02-21T11:24:28;94633.97;;;10.70;63.87
9277;BME280;4676;42.678;23.244;2024-02-21T11:27:08;94635.31;;;10.28;66.16
9277;BME280;4676;42.678;23.244;2024-02-21T11:29:40;94629.97;;;10.08;62.41
9277;BME280;4676;42.678;23.244;2024-02-21T11:32:09;94640.38;;;9.98;64.72
9277;BME280;4676;42.678;23.244;2024-02-21T11:34:36;94638.91;;;9.91;64.95
9277;BME280;4676;42.678;23.244;2024-02-21T11:37:12;94627.28;;;9.84;66.01
9277;BME280;4676;42.678;23.244;2024-02-21T11:39:40;94633.22;;;9.83;64.78
9277;BME280;4676;42.678;23.244;2024-02-21T11:42:09;94630.91;;;9.76;66.93
9277;BME280;4676;42.678;23.244;2024-02-21T11:44:38;94625.75;;;9.79;68.93
9277;BME280;4676;42.678;23.244;2024-02-21T11:47:05;94622.97;;;9.88;68.30
9277;BME280;4676;42.678;23.244;2024-02-21T11:49:36;94596.41;;;9.72;66.92
9277;BME280;4676;42.678;23.244;2024-02-21T11:52:04;94618.53;;;9.65;68.38
9277;BME280;4676;42.678;23.244;2024-02-21T11:54:30;94617.72;;;9.65;69.24
9277;BME280;4676;42.678;23.244;2024-02-21T11:56:57;94622.47;;;9.75;69.00
9277;BME280;4676;42.678;23.244;2024-02-21T11:59:26;94615.16;;;9.66;69.47
9277;BME280;4676;42.678;23.244;2024-02-21T12:01:53;94614.31;;;9.66;70.62
9277;BME280;4676;42.678;23.244;2024-02-21T12:04:20;94609.28;;;9.64;71.84
9277;BME280;4676;42.678;23.244;2024-02-21T12:06:49;94611.81;;;9.64;75.49
9277;BME280;4676;42.678;23.244;2024-02-21T12:09:16;94617.72;;;9.65;78.38
9277;BME280;4676;42.678;23.244;2024-02-21T12:11:43;94586.78;;;9.55;75.32
9277;BME280;4676;42.678;23.244;2024-02-21T12:14:10;94605.34;;;9.54;74.88
9277;BME280;4676;42.678;23.244;2024-02-21T12:16:38;94603.00;;;9.48;74.18
9277;BME280;4676;42.678;23.244;2024-02-21T12:19:05;94610.91;;;9.36;74.75
9277;BME280;4676;42.678;23.244;2024-02-21T12:21:33;94602.81;;;9.25;75.37
9277;BME280;4676;42.678;23.244;2024-02-21T12:24:11;94574.75;;;9.03;75.51
9277;BME280;4676;42.678;23.244;2024-02-21T12:26:39;94604.41;;;9.29;76.14
9277;BME280;4676;42.678;23.244;2024-02-21T12:29:06;94602.00;;;9.23;73.84
9277;BME280;4676;42.678;23.244;2024-02-21T12:31:34;94569.63;;;9.04;73.79
9277;BME280;4676;42.678;23.244;2024-02-21T12:34:03;94589.38;;;9.23;74.30
9277;BME280;4676;42.678;23.244;2024-02-21T12:36:29;94592.72;;;9.23;74.18
9277;BME280;4676;42.678;23.244;2024-02-21T12:38:57;94599.19;;;9.33;73.17
9277;BME280;4676;42.678;23.244;2024-02-21T12:41:24;94580.66;;;9.33;70.61
9277;BME280;4676;42.678;23.244;2024-02-21T12:43:52;94593.91;;;9.42;72.74
9277;BME280;4676;42.678;23.244;2024-02-21T12:46:19;94581.75;;;9.53;70.22
9277;BME280;4676;42.678;23.244;2024-02-21T12:48:45;94585.78;;;9.61;70.20
9277;BME280;4676;42.678;23.244;2024-02-21T12:51:13;94584.88;;;9.63;69.67
9277;BME280;4676;42.678;23.244;2024-02-21T12:53:41;94589.00;;;9.66;70.33
9277;BME280;4676;42.678;23.244;2024-02-21T12:56:07;94567.84;;;9.68;71.28
9277;BME280;4676;42.678;23.244;2024-02-21T12:58:34;94586.47;;;9.66;67.46
9277;BME280;4676;42.678;23.244;2024-02-21T13:01:01;94579.50;;;9.74;69.31
9277;BME280;4676;42.678;23.244;2024-02-21T13:03:28;94578.72;;;9.72;73.24
9277;BME280;4676;42.678;23.244;2024-02-21T13:05:55;94565.53;;;9.61;81.42
9277;BME280;4676;42.678;23.244;2024-02-21T13:08:25;94572.66;;;9.48;86.50
9277;BME280;4676;42.678;23.244;2024-02-21T13:10:52;94562.09;;;9.34;89.03
9277;BME280;4676;42.678;23.244;2024-02-21T13:13:19;94567.66;;;9.16;92.22
9277;BME280;4676;42.678;23.244;2024-02-21T13:15:46;94551.78;;;9.11;99.12
9277;BME280;4676;42.678;23.244;2024-02-21T13:18:12;94553.59;;;9.06;95.95
9277;BME280;4676;42.678;23.244;2024-02-21T13:20:39;94564.53;;;9.06;94.51
9277;BME280;4676;42.678;23.244;2024-02-21T13:23:06;94544.78;;;8.89;97.73
9277;BME280;4676;42.678;23.244;2024-02-21T13:25:34;94548.88;;;8.93;100.00
9277;BME280;4676;42.678;23.244;2024-02-21T13:28:00;94526.72;;;8.71;100.00
9277;BME280;4676;42.678;23.244;2024-02-21T13:30:28;94537.88;;;8.94;99.76
9277;BME280;4676;42.678;23.244;2024-02-21T13:32:55;94548.00;;;8.94;97.27
9277;BME280;4676;42.678;23.244;2024-02-21T13:35:21;94545.47;;;8.94;94.41
9277;BME280;4676;42.678;23.244;2024-02-21T13:37:48;94550.44;;;8.97;94.32
9277;BME280;4676;42.678;23.244;2024-02-21T13:40:16;94540.41;;;8.94;87.47
9277;BME280;4676;42.678;23.244;2024-02-21T13:42:44;94550.66;;;8.90;84.30
9277;BME280;4676;42.678;23.244;2024-02-21T13:45:10;94542.34;;;8.85;85.73